Terminal Aerodrome Forecast
Issued by NWS

Home | Current Version | Previous Version | Text Only | Print | Product List | Glossary On
Versions: 1 2 3 4 5 6 7 8 9 10 11 12 13 14
000
FTUS44 KLIX 281722
TAFHUM
TAF
KHUM 281722Z 2818/2918 17017G26KT 5SM HZ OVC018
     FM290400 14012KT P6SM BKN010
     FM291400 15020G28KT P6SM BKN020=

USA.gov is the U.S. government's official web portal to all federal, state and local government web resources and services.